Saint-Cesaire, Canada
Current Conditions -  °F | °C
As of 7:38 PM on Monday 24 Nov 2014 (Local Time) from CYHU Reporting Station
Overcast Overcast  
Wind Chill: 57°   Ceiling: 5500
Heat Index: 57°   Visibility: 9mi
Dew Point: 50°   Wind: 22mph
Humidity: 77%   Direction: 240°WSW
Pressure: 29.36"   Gusts: 31mph
Location:  45.4°N, 73°W
Report Text: CYHU 250038Z AUTO 24019G27KT 9SM FEW045 BKN055 OVC073 14/10 A2936 RMK PRESRR SLP943 DENSITY ALT 600FT
Loading
Personal Weather Stations






























Interactive Weather Map New forecast layout! Learn more

10-Day Weather Forecast

Advertisements
Track Severe Weather on mobile